sensor_id;sensor_type;location;lat;lon;timestamp;temperature;humidity
19003;DHT22;9634;51.040;13.794;2022-12-05T00:14:06;8.00;40.30
19003;DHT22;9634;51.040;13.794;2022-12-05T00:19:11;8.00;1.00
19003;DHT22;9634;51.040;13.794;2022-12-05T00:24:15;8.00;1.00
19003;DHT22;9634;51.040;13.794;2022-12-05T00:29:18;8.00;1.00
19003;DHT22;9634;51.040;13.794;2022-12-05T00:34:21;8.10;1.00
19003;DHT22;9634;51.040;13.794;2022-12-05T00:39:23;8.10;1.00
19003;DHT22;9634;51.040;13.794;2022-12-05T00:44:26;8.00;1.00
19003;DHT22;9634;51.040;13.794;2022-12-05T00:49:29;8.10;1.00
19003;DHT22;9634;51.040;13.794;2022-12-05T00:54:31;8.10;1.00
19003;DHT22;9634;51.040;13.794;2022-12-05T00:59:34;8.00;1.00
19003;DHT22;9634;51.040;13.794;2022-12-05T01:04:37;8.10;1.00
19003;DHT22;9634;51.040;13.794;2022-12-05T01:09:39;8.10;1.00
19003;DHT22;9634;51.040;13.794;2022-12-05T01:14:42;8.10;68.80
19003;DHT22;9634;51.040;13.794;2022-12-05T01:19:45;8.00;99.90
19003;DHT22;9634;51.040;13.794;2022-12-05T01:24:47;8.00;99.90
19003;DHT22;9634;51.040;13.794;2022-12-05T01:29:50;8.10;99.90
19003;DHT22;9634;51.040;13.794;2022-12-05T01:34:53;8.10;99.90
19003;DHT22;9634;51.040;13.794;2022-12-05T01:39:56;8.10;1.00
19003;DHT22;9634;51.040;13.794;2022-12-05T01:45:08;8.00;1.00
19003;DHT22;9634;51.040;13.794;2022-12-05T01:50:13;8.00;1.00
19003;DHT22;9634;51.040;13.794;2022-12-05T01:55:16;8.00;1.00
19003;DHT22;9634;51.040;13.794;2022-12-05T02:00:21;8.10;1.00
19003;DHT22;9634;51.040;13.794;2022-12-05T02:05:27;8.00;1.00
19003;DHT22;9634;51.040;13.794;2022-12-05T02:10:33;8.00;1.00
19003;DHT22;9634;51.040;13.794;2022-12-05T02:15:42;8.00;1.00
19003;DHT22;9634;51.040;13.794;2022-12-05T02:21:02;8.00;94.30
19003;DHT22;9634;51.040;13.794;2022-12-05T02:31:59;8.00;99.90
19003;DHT22;9634;51.040;13.794;2022-12-05T02:37:09;8.00;99.90
19003;DHT22;9634;51.040;13.794;2022-12-05T02:42:19;8.00;99.90
19003;DHT22;9634;51.040;13.794;2022-12-05T02:47:28;8.00;1.00
19003;DHT22;9634;51.040;13.794;2022-12-05T02:52:32;7.90;1.00
19003;DHT22;9634;51.040;13.794;2022-12-05T02:57:36;7.90;1.00
19003;DHT22;9634;51.040;13.794;2022-12-05T03:02:41;7.90;1.00
19003;DHT22;9634;51.040;13.794;2022-12-05T03:07:46;7.90;1.00
19003;DHT22;9634;51.040;13.794;2022-12-05T03:12:52;7.90;1.00
19003;DHT22;9634;51.040;13.794;2022-12-05T03:18:02;7.80;1.00
19003;DHT22;9634;51.040;13.794;2022-12-05T03:23:10;7.80;1.00
19003;DHT22;9634;51.040;13.794;2022-12-05T03:28:19;7.80;1.00
19003;DHT22;9634;51.040;13.794;2022-12-05T03:33:27;7.80;1.00
19003;DHT22;9634;51.040;13.794;2022-12-05T03:38:34;7.80;30.60
19003;DHT22;9634;51.040;13.794;2022-12-05T03:43:46;7.90;1.00
19003;DHT22;9634;51.040;13.794;2022-12-05T03:48:54;7.80;2.40
19003;DHT22;9634;51.040;13.794;2022-12-05T03:54:03;7.80;51.70
19003;DHT22;9634;51.040;13.794;2022-12-05T03:59:13;7.80;8.70
19003;DHT22;9634;51.040;13.794;2022-12-05T04:04:24;7.70;1.00
19003;DHT22;9634;51.040;13.794;2022-12-05T04:09:30;7.70;3.60
19003;DHT22;9634;51.040;13.794;2022-12-05T04:14:36;7.70;69.90
19003;DHT22;9634;51.040;13.794;2022-12-05T04:19:45;7.70;1.00
19003;DHT22;9634;51.040;13.794;2022-12-05T04:25:08;7.70;1.00
19003;DHT22;9634;51.040;13.794;2022-12-05T04:30:33;7.70;1.00
19003;DHT22;9634;51.040;13.794;2022-12-05T04:35:42;7.70;1.00
19003;DHT22;9634;51.040;13.794;2022-12-05T04:40:50;7.70;1.00
19003;DHT22;9634;51.040;13.794;2022-12-05T04:45:55;7.70;1.00
19003;DHT22;9634;51.040;13.794;2022-12-05T04:51:00;7.70;1.00
19003;DHT22;9634;51.040;13.794;2022-12-05T04:56:04;7.70;1.00
19003;DHT22;9634;51.040;13.794;2022-12-05T05:13:53;7.70;1.00
19003;DHT22;9634;51.040;13.794;2022-12-05T05:18:55;7.70;1.00
19003;DHT22;9634;51.040;13.794;2022-12-05T05:23:58;7.70;1.00
19003;DHT22;9634;51.040;13.794;2022-12-05T05:29:02;7.70;1.00
19003;DHT22;9634;51.040;13.794;2022-12-05T05:34:05;7.70;1.00
19003;DHT22;9634;51.040;13.794;2022-12-05T05:39:12;7.70;1.00
19003;DHT22;9634;51.040;13.794;2022-12-05T05:44:16;7.80;1.00
19003;DHT22;9634;51.040;13.794;2022-12-05T05:49:18;7.70;1.00
19003;DHT22;9634;51.040;13.794;2022-12-05T05:54:20;7.70;1.00
19003;DHT22;9634;51.040;13.794;2022-12-05T05:59:24;7.70;23.80
19003;DHT22;9634;51.040;13.794;2022-12-05T06:04:26;7.70;17.30
19003;DHT22;9634;51.040;13.794;2022-12-05T06:09:28;7.70;99.90
19003;DHT22;9634;51.040;13.794;2022-12-05T06:14:32;7.60;99.90
19003;DHT22;9634;51.040;13.794;2022-12-05T06:19:35;7.70;42.60
19003;DHT22;9634;51.040;13.794;2022-12-05T06:24:37;7.70;99.50
19003;DHT22;9634;51.040;13.794;2022-12-05T06:29:41;7.70;1.00
19003;DHT22;9634;51.040;13.794;2022-12-05T06:34:43;7.70;1.00
19003;DHT22;9634;51.040;13.794;2022-12-05T06:39:45;7.70;1.00
19003;DHT22;9634;51.040;13.794;2022-12-05T06:44:49;7.70;1.00
19003;DHT22;9634;51.040;13.794;2022-12-05T06:49:51;7.80;1.00
19003;DHT22;9634;51.040;13.794;2022-12-05T06:54:53;7.70;1.00
19003;DHT22;9634;51.040;13.794;2022-12-05T06:59:57;7.70;1.00
19003;DHT22;9634;51.040;13.794;2022-12-05T07:05:22;7.80;1.00
19003;DHT22;9634;51.040;13.794;2022-12-05T07:10:24;7.70;1.00
19003;DHT22;9634;51.040;13.794;2022-12-05T07:15:28;7.80;1.00
19003;DHT22;9634;51.040;13.794;2022-12-05T07:20:30;7.80;1.00
19003;DHT22;9634;51.040;13.794;2022-12-05T07:25:32;7.80;1.00
19003;DHT22;9634;51.040;13.794;2022-12-05T07:30:36;7.90;1.00
19003;DHT22;9634;51.040;13.794;2022-12-05T07:35:38;7.90;99.90
19003;DHT22;9634;51.040;13.794;2022-12-05T07:40:40;7.90;99.90
19003;DHT22;9634;51.040;13.794;2022-12-05T07:45:44;8.00;99.90
19003;DHT22;9634;51.040;13.794;2022-12-05T07:50:46;8.00;99.90
19003;DHT22;9634;51.040;13.794;2022-12-05T07:55:48;8.00;99.90
19003;DHT22;9634;51.040;13.794;2022-12-05T08:00:52;8.00;99.90
19003;DHT22;9634;51.040;13.794;2022-12-05T08:05:54;8.10;99.90
19003;DHT22;9634;51.040;13.794;2022-12-05T08:11:02;8.10;1.00
19003;DHT22;9634;51.040;13.794;2022-12-05T08:16:08;8.10;7.30
19003;DHT22;9634;51.040;13.794;2022-12-05T08:21:12;8.10;99.90
19003;DHT22;9634;51.040;13.794;2022-12-05T08:26:16;8.20;99.90
19003;DHT22;9634;51.040;13.794;2022-12-05T08:31:22;8.30;17.50
19003;DHT22;9634;51.040;13.794;2022-12-05T08:36:26;8.50;1.00
19003;DHT22;9634;51.040;13.794;2022-12-05T08:41:29;8.60;1.00
19003;DHT22;9634;51.040;13.794;2022-12-05T08:46:35;8.60;99.90
19003;DHT22;9634;51.040;13.794;2022-12-05T08:51:37;8.70;1.00
19003;DHT22;9634;51.040;13.794;2022-12-05T12:10:47;8.50;1.00
19003;DHT22;9634;51.040;13.794;2022-12-05T12:16:04;8.60;93.00
19003;DHT22;9634;51.040;13.794;2022-12-05T14:20:50;7.90;1.00
19003;DHT22;9634;51.040;13.794;2022-12-05T16:25:01;7.30;1.00
19003;DHT22;9634;51.040;13.794;2022-12-05T16:30:17;7.30;1.00
19003;DHT22;9634;51.040;13.794;2022-12-05T16:35:31;7.40;99.90
19003;DHT22;9634;51.040;13.794;2022-12-05T16:40:35;7.30;1.00
19003;DHT22;9634;51.040;13.794;2022-12-05T16:45:40;7.20;99.90
19003;DHT22;9634;51.040;13.794;2022-12-05T16:50:42;7.20;1.00
19003;DHT22;9634;51.040;13.794;2022-12-05T16:55:46;7.20;99.90
19003;DHT22;9634;51.040;13.794;2022-12-05T17:00:49;7.30;1.00
19003;DHT22;9634;51.040;13.794;2022-12-05T17:05:51;7.30;15.70
19003;DHT22;9634;51.040;13.794;2022-12-05T17:10:55;7.30;1.00
19003;DHT22;9634;51.040;13.794;2022-12-05T17:15:57;7.30;1.00
19003;DHT22;9634;51.040;13.794;2022-12-05T17:21:00;7.30;1.00
19003;DHT22;9634;51.040;13.794;2022-12-05T17:26:04;7.30;1.00
19003;DHT22;9634;51.040;13.794;2022-12-05T17:31:08;7.30;1.00
19003;DHT22;9634;51.040;13.794;2022-12-05T17:36:11;7.20;1.00
19003;DHT22;9634;51.040;13.794;2022-12-05T17:41:16;7.20;1.00
19003;DHT22;9634;51.040;13.794;2022-12-05T17:46:20;7.20;1.00
19003;DHT22;9634;51.040;13.794;2022-12-05T17:51:23;7.20;1.00
19003;DHT22;9634;51.040;13.794;2022-12-05T17:56:27;7.20;1.00
19003;DHT22;9634;51.040;13.794;2022-12-05T18:01:29;7.20;1.00
19003;DHT22;9634;51.040;13.794;2022-12-05T18:06:31;7.20;1.00
19003;DHT22;9634;51.040;13.794;2022-12-05T18:11:35;7.20;1.00
19003;DHT22;9634;51.040;13.794;2022-12-05T18:16:37;7.10;1.00
19003;DHT22;9634;51.040;13.794;2022-12-05T18:21:39;7.10;99.90
19003;DHT22;9634;51.040;13.794;2022-12-05T18:26:43;7.10;99.90
19003;DHT22;9634;51.040;13.794;2022-12-05T18:31:45;7.10;99.90
19003;DHT22;9634;51.040;13.794;2022-12-05T18:36:48;7.00;1.00
19003;DHT22;9634;51.040;13.794;2022-12-05T18:41:51;7.00;1.00
19003;DHT22;9634;51.040;13.794;2022-12-05T18:46:54;6.90;1.00
19003;DHT22;9634;51.040;13.794;2022-12-05T18:51:56;6.80;1.00
19003;DHT22;9634;51.040;13.794;2022-12-05T18:56:59;6.80;1.00
19003;DHT22;9634;51.040;13.794;2022-12-05T19:02:02;6.80;1.00
19003;DHT22;9634;51.040;13.794;2022-12-05T19:07:05;6.80;1.00
19003;DHT22;9634;51.040;13.794;2022-12-05T19:12:09;6.80;1.00
19003;DHT22;9634;51.040;13.794;2022-12-05T19:17:11;6.80;1.00
19003;DHT22;9634;51.040;13.794;2022-12-05T19:22:13;6.60;1.00
19003;DHT22;9634;51.040;13.794;2022-12-05T19:27:17;6.50;1.00
19003;DHT22;9634;51.040;13.794;2022-12-05T19:32:19;6.50;1.00
19003;DHT22;9634;51.040;13.794;2022-12-05T19:37:22;6.50;1.00
19003;DHT22;9634;51.040;13.794;2022-12-05T19:42:25;6.50;1.00
19003;DHT22;9634;51.040;13.794;2022-12-05T19:47:29;6.50;1.00
19003;DHT22;9634;51.040;13.794;2022-12-05T19:52:31;6.50;1.00
19003;DHT22;9634;51.040;13.794;2022-12-05T19:57:36;6.40;1.00
19003;DHT22;9634;51.040;13.794;2022-12-05T20:02:38;6.50;1.00
19003;DHT22;9634;51.040;13.794;2022-12-05T20:07:40;6.40;1.00
19003;DHT22;9634;51.040;13.794;2022-12-05T20:12:44;6.50;1.00
19003;DHT22;9634;51.040;13.794;2022-12-05T20:17:46;6.40;11.90
19003;DHT22;9634;51.040;13.794;2022-12-05T20:22:48;6.40;7.50
19003;DHT22;9634;51.040;13.794;2022-12-05T20:27:52;6.40;7.10
19003;DHT22;9634;51.040;13.794;2022-12-05T20:32:54;6.40;12.50
19003;DHT22;9634;51.040;13.794;2022-12-05T20:37:57;6.40;26.90
19003;DHT22;9634;51.040;13.794;2022-12-05T20:43:01;6.50;47.30
19003;DHT22;9634;51.040;13.794;2022-12-05T20:48:05;6.40;34.30
19003;DHT22;9634;51.040;13.794;2022-12-05T20:53:07;6.40;26.00
19003;DHT22;9634;51.040;13.794;2022-12-05T20:58:11;6.40;26.20
19003;DHT22;9634;51.040;13.794;2022-12-05T21:03:13;6.40;42.80
19003;DHT22;9634;51.040;13.794;2022-12-05T21:08:16;6.40;58.40
19003;DHT22;9634;51.040;13.794;2022-12-05T21:13:19;6.30;69.00
19003;DHT22;9634;51.040;13.794;2022-12-05T21:18:21;6.30;70.20
19003;DHT22;9634;51.040;13.794;2022-12-05T23:22:30;5.80;1.00
19003;DHT22;9634;51.040;13.794;2022-12-05T23:27:34;5.80;1.00
19003;DHT22;9634;51.040;13.794;2022-12-05T23:32:37;5.80;1.00
19003;DHT22;9634;51.040;13.794;2022-12-05T23:37:40;5.90;1.00
19003;DHT22;9634;51.040;13.794;2022-12-05T23:42:43;5.90;1.00
19003;DHT22;9634;51.040;13.794;2022-12-05T23:47:45;5.90;1.00
19003;DHT22;9634;51.040;13.794;2022-12-05T23:52:49;5.90;1.00
19003;DHT22;9634;51.040;13.794;2022-12-05T23:57:51;6.00;1.00
